sensor_id;sensor_type;location;lat;lon;timestamp;P1;durP1;ratioP1;P2;durP2;ratioP2
82505;SDS011;72144;51.444;10.560;2023-09-30T00:02:04;4.32;;;1.50;;
82505;SDS011;72144;51.444;10.560;2023-09-30T00:04:30;7.18;;;1.85;;
82505;SDS011;72144;51.444;10.560;2023-09-30T00:06:55;5.00;;;1.70;;
82505;SDS011;72144;51.444;10.560;2023-09-30T00:09:21;3.70;;;1.40;;
82505;SDS011;72144;51.444;10.560;2023-09-30T00:11:47;6.10;;;1.60;;
82505;SDS011;72144;51.444;10.560;2023-09-30T00:14:12;4.05;;;1.45;;
82505;SDS011;72144;51.444;10.560;2023-09-30T00:16:38;5.65;;;1.60;;
82505;SDS011;72144;51.444;10.560;2023-09-30T00:19:03;3.00;;;1.33;;
82505;SDS011;72144;51.444;10.560;2023-09-30T00:21:29;4.32;;;1.83;;
82505;SDS011;72144;51.444;10.560;2023-09-30T00:23:54;4.32;;;1.77;;
82505;SDS011;72144;51.444;10.560;2023-09-30T00:26:20;5.50;;;1.35;;
82505;SDS011;72144;51.444;10.560;2023-09-30T00:28:47;4.97;;;1.60;;
82505;SDS011;72144;51.444;10.560;2023-09-30T00:31:12;3.80;;;1.42;;
82505;SDS011;72144;51.444;10.560;2023-09-30T00:33:38;3.88;;;1.65;;
82505;SDS011;72144;51.444;10.560;2023-09-30T00:36:09;4.10;;;1.42;;
82505;SDS011;72144;51.444;10.560;2023-09-30T00:38:39;4.43;;;1.48;;
82505;SDS011;72144;51.444;10.560;2023-09-30T00:41:05;5.20;;;1.80;;
82505;SDS011;72144;51.444;10.560;2023-09-30T00:43:32;4.40;;;1.88;;
82505;SDS011;72144;51.444;10.560;2023-09-30T00:46:10;3.85;;;1.60;;
82505;SDS011;72144;51.444;10.560;2023-09-30T00:48:38;6.85;;;1.90;;
82505;SDS011;72144;51.444;10.560;2023-09-30T00:51:04;6.30;;;2.10;;
82505;SDS011;72144;51.444;10.560;2023-09-30T00:53:30;3.97;;;1.67;;
82505;SDS011;72144;51.444;10.560;2023-09-30T00:55:56;3.60;;;1.63;;
82505;SDS011;72144;51.444;10.560;2023-09-30T00:58:22;5.60;;;1.80;;
82505;SDS011;72144;51.444;10.560;2023-09-30T01:00:52;4.28;;;1.80;;
82505;SDS011;72144;51.444;10.560;2023-09-30T01:03:19;5.38;;;1.90;;
82505;SDS011;72144;51.444;10.560;2023-09-30T01:05:45;4.70;;;1.80;;
82505;SDS011;72144;51.444;10.560;2023-09-30T01:08:10;5.32;;;1.67;;
82505;SDS011;72144;51.444;10.560;2023-09-30T01:10:36;4.97;;;2.08;;
82505;SDS011;72144;51.444;10.560;2023-09-30T01:13:01;5.93;;;1.70;;
82505;SDS011;72144;51.444;10.560;2023-09-30T01:15:28;6.40;;;1.95;;
82505;SDS011;72144;51.444;10.560;2023-09-30T01:17:54;3.63;;;1.90;;
82505;SDS011;72144;51.444;10.560;2023-09-30T01:20:19;4.93;;;1.90;;
82505;SDS011;72144;51.444;10.560;2023-09-30T01:22:48;6.38;;;1.98;;
82505;SDS011;72144;51.444;10.560;2023-09-30T01:25:14;4.13;;;1.75;;
82505;SDS011;72144;51.444;10.560;2023-09-30T01:27:39;6.55;;;2.00;;
82505;SDS011;72144;51.444;10.560;2023-09-30T01:30:05;5.18;;;2.00;;
82505;SDS011;72144;51.444;10.560;2023-09-30T01:32:31;4.47;;;1.75;;
82505;SDS011;72144;51.444;10.560;2023-09-30T01:34:56;4.90;;;1.70;;
82505;SDS011;72144;51.444;10.560;2023-09-30T01:37:22;4.03;;;1.60;;
82505;SDS011;72144;51.444;10.560;2023-09-30T01:39:47;7.28;;;2.50;;
82505;SDS011;72144;51.444;10.560;2023-09-30T01:42:15;7.40;;;2.10;;
82505;SDS011;72144;51.444;10.560;2023-09-30T01:44:40;12.25;;;3.03;;
82505;SDS011;72144;51.444;10.560;2023-09-30T01:47:06;9.65;;;2.42;;
82505;SDS011;72144;51.444;10.560;2023-09-30T01:49:31;4.90;;;1.90;;
82505;SDS011;72144;51.444;10.560;2023-09-30T01:51:57;6.28;;;2.00;;
82505;SDS011;72144;51.444;10.560;2023-09-30T01:54:23;5.78;;;2.05;;
82505;SDS011;72144;51.444;10.560;2023-09-30T01:56:48;7.05;;;2.45;;
82505;SDS011;72144;51.444;10.560;2023-09-30T01:59:14;6.20;;;1.83;;
82505;SDS011;72144;51.444;10.560;2023-09-30T02:01:40;6.88;;;2.17;;
82505;SDS011;72144;51.444;10.560;2023-09-30T02:04:05;6.15;;;2.78;;
82505;SDS011;72144;51.444;10.560;2023-09-30T02:06:31;5.13;;;2.05;;
82505;SDS011;72144;51.444;10.560;2023-09-30T02:08:57;6.05;;;2.22;;
82505;SDS011;72144;51.444;10.560;2023-09-30T02:11:22;5.93;;;2.20;;
82505;SDS011;72144;51.444;10.560;2023-09-30T02:13:48;6.70;;;2.30;;
82505;SDS011;72144;51.444;10.560;2023-09-30T02:16:13;6.50;;;2.55;;
82505;SDS011;72144;51.444;10.560;2023-09-30T02:18:39;6.05;;;1.83;;
82505;SDS011;72144;51.444;10.560;2023-09-30T02:21:08;3.67;;;2.00;;
82505;SDS011;72144;51.444;10.560;2023-09-30T02:23:34;6.53;;;2.20;;
82505;SDS011;72144;51.444;10.560;2023-09-30T02:26:00;7.78;;;2.88;;
82505;SDS011;72144;51.444;10.560;2023-09-30T02:28:27;7.88;;;1.95;;
82505;SDS011;72144;51.444;10.560;2023-09-30T02:30:52;8.45;;;2.13;;
82505;SDS011;72144;51.444;10.560;2023-09-30T02:33:18;5.50;;;2.10;;
82505;SDS011;72144;51.444;10.560;2023-09-30T02:35:44;7.32;;;2.05;;
82505;SDS011;72144;51.444;10.560;2023-09-30T02:38:10;7.10;;;2.33;;
82505;SDS011;72144;51.444;10.560;2023-09-30T02:40:36;8.27;;;2.72;;
82505;SDS011;72144;51.444;10.560;2023-09-30T02:43:03;8.57;;;2.22;;
82505;SDS011;72144;51.444;10.560;2023-09-30T02:45:29;6.13;;;2.30;;
82505;SDS011;72144;51.444;10.560;2023-09-30T02:47:54;6.43;;;2.50;;
82505;SDS011;72144;51.444;10.560;2023-09-30T02:50:20;9.30;;;2.38;;
82505;SDS011;72144;51.444;10.560;2023-09-30T02:52:46;8.65;;;2.55;;
82505;SDS011;72144;51.444;10.560;2023-09-30T02:55:12;8.20;;;2.30;;
82505;SDS011;72144;51.444;10.560;2023-09-30T02:57:38;6.70;;;2.50;;
82505;SDS011;72144;51.444;10.560;2023-09-30T03:00:04;5.35;;;1.92;;
82505;SDS011;72144;51.444;10.560;2023-09-30T03:02:49;10.13;;;2.63;;
82505;SDS011;72144;51.444;10.560;2023-09-30T03:05:16;12.40;;;2.50;;
82505;SDS011;72144;51.444;10.560;2023-09-30T03:07:42;5.88;;;2.20;;
82505;SDS011;72144;51.444;10.560;2023-09-30T03:10:08;5.63;;;2.38;;
82505;SDS011;72144;51.444;10.560;2023-09-30T03:12:34;6.43;;;2.05;;
82505;SDS011;72144;51.444;10.560;2023-09-30T03:15:00;6.57;;;2.20;;
82505;SDS011;72144;51.444;10.560;2023-09-30T03:17:29;4.10;;;1.63;;
82505;SDS011;72144;51.444;10.560;2023-09-30T03:19:55;8.68;;;2.45;;
82505;SDS011;72144;51.444;10.560;2023-09-30T03:22:22;5.88;;;2.08;;
82505;SDS011;72144;51.444;10.560;2023-09-30T03:24:48;7.30;;;2.25;;
82505;SDS011;72144;51.444;10.560;2023-09-30T03:27:13;7.82;;;2.75;;
82505;SDS011;72144;51.444;10.560;2023-09-30T03:29:40;8.48;;;2.35;;
82505;SDS011;72144;51.444;10.560;2023-09-30T03:32:06;6.47;;;1.90;;
82505;SDS011;72144;51.444;10.560;2023-09-30T03:34:33;8.25;;;2.50;;
82505;SDS011;72144;51.444;10.560;2023-09-30T03:37:01;7.07;;;2.28;;
82505;SDS011;72144;51.444;10.560;2023-09-30T03:39:26;8.35;;;1.98;;
82505;SDS011;72144;51.444;10.560;2023-09-30T03:41:55;6.32;;;1.77;;
82505;SDS011;72144;51.444;10.560;2023-09-30T03:44:22;4.90;;;2.03;;
82505;SDS011;72144;51.444;10.560;2023-09-30T03:46:48;9.30;;;2.30;;
82505;SDS011;72144;51.444;10.560;2023-09-30T03:49:15;5.82;;;1.95;;
82505;SDS011;72144;51.444;10.560;2023-09-30T03:51:41;5.20;;;1.63;;
82505;SDS011;72144;51.444;10.560;2023-09-30T03:54:07;8.75;;;1.75;;
82505;SDS011;72144;51.444;10.560;2023-09-30T03:56:33;5.57;;;2.10;;
82505;SDS011;72144;51.444;10.560;2023-09-30T03:58:59;9.18;;;2.50;;
82505;SDS011;72144;51.444;10.560;2023-09-30T04:01:24;7.18;;;2.33;;
82505;SDS011;72144;51.444;10.560;2023-09-30T04:03:51;6.72;;;2.17;;
82505;SDS011;72144;51.444;10.560;2023-09-30T04:06:19;7.00;;;2.28;;
82505;SDS011;72144;51.444;10.560;2023-09-30T04:08:45;7.68;;;2.33;;
82505;SDS011;72144;51.444;10.560;2023-09-30T04:11:10;7.93;;;1.92;;
82505;SDS011;72144;51.444;10.560;2023-09-30T04:13:41;8.00;;;2.25;;
82505;SDS011;72144;51.444;10.560;2023-09-30T04:16:07;8.73;;;2.72;;
82505;SDS011;72144;51.444;10.560;2023-09-30T04:18:32;10.20;;;2.67;;
82505;SDS011;72144;51.444;10.560;2023-09-30T04:20:58;7.75;;;2.10;;
82505;SDS011;72144;51.444;10.560;2023-09-30T04:23:24;7.55;;;2.63;;
82505;SDS011;72144;51.444;10.560;2023-09-30T04:25:50;5.55;;;2.05;;
82505;SDS011;72144;51.444;10.560;2023-09-30T04:28:15;6.40;;;2.22;;
82505;SDS011;72144;51.444;10.560;2023-09-30T04:30:45;7.82;;;2.10;;
82505;SDS011;72144;51.444;10.560;2023-09-30T04:33:12;8.57;;;2.95;;
82505;SDS011;72144;51.444;10.560;2023-09-30T04:35:38;7.95;;;2.33;;
82505;SDS011;72144;51.444;10.560;2023-09-30T04:38:03;8.25;;;2.38;;
82505;SDS011;72144;51.444;10.560;2023-09-30T04:40:29;9.23;;;2.45;;
82505;SDS011;72144;51.444;10.560;2023-09-30T04:42:55;4.47;;;2.10;;
82505;SDS011;72144;51.444;10.560;2023-09-30T04:45:26;7.30;;;2.45;;
82505;SDS011;72144;51.444;10.560;2023-09-30T04:47:54;9.73;;;2.63;;
82505;SDS011;72144;51.444;10.560;2023-09-30T04:52:49;13.05;;;2.97;;
82505;SDS011;72144;51.444;10.560;2023-09-30T04:55:16;6.75;;;2.60;;
82505;SDS011;72144;51.444;10.560;2023-09-30T04:57:42;6.97;;;2.30;;
82505;SDS011;72144;51.444;10.560;2023-09-30T05:00:14;9.32;;;3.28;;
82505;SDS011;72144;51.444;10.560;2023-09-30T05:02:42;9.00;;;2.80;;
82505;SDS011;72144;51.444;10.560;2023-09-30T05:05:09;12.65;;;3.17;;
82505;SDS011;72144;51.444;10.560;2023-09-30T05:07:35;8.50;;;2.72;;
82505;SDS011;72144;51.444;10.560;2023-09-30T05:10:01;8.52;;;2.70;;
82505;SDS011;72144;51.444;10.560;2023-09-30T05:12:30;8.90;;;2.75;;
82505;SDS011;72144;51.444;10.560;2023-09-30T05:14:56;5.65;;;2.95;;
82505;SDS011;72144;51.444;10.560;2023-09-30T05:17:22;6.65;;;2.55;;
82505;SDS011;72144;51.444;10.560;2023-09-30T05:19:47;8.35;;;2.65;;
82505;SDS011;72144;51.444;10.560;2023-09-30T05:22:13;7.55;;;3.03;;
82505;SDS011;72144;51.444;10.560;2023-09-30T05:24:38;6.85;;;2.70;;
82505;SDS011;72144;51.444;10.560;2023-09-30T05:27:03;10.18;;;3.30;;
82505;SDS011;72144;51.444;10.560;2023-09-30T05:29:29;8.63;;;2.72;;
82505;SDS011;72144;51.444;10.560;2023-09-30T05:31:57;7.35;;;2.58;;
82505;SDS011;72144;51.444;10.560;2023-09-30T05:34:23;10.50;;;3.35;;
82505;SDS011;72144;51.444;10.560;2023-09-30T05:36:48;7.50;;;2.90;;
82505;SDS011;72144;51.444;10.560;2023-09-30T05:39:14;9.55;;;3.15;;
82505;SDS011;72144;51.444;10.560;2023-09-30T05:41:44;7.05;;;2.70;;
82505;SDS011;72144;51.444;10.560;2023-09-30T05:44:09;9.45;;;3.65;;
82505;SDS011;72144;51.444;10.560;2023-09-30T05:46:35;9.77;;;3.33;;
82505;SDS011;72144;51.444;10.560;2023-09-30T05:49:00;6.93;;;3.22;;
82505;SDS011;72144;51.444;10.560;2023-09-30T05:51:26;11.15;;;3.55;;
82505;SDS011;72144;51.444;10.560;2023-09-30T05:53:52;8.70;;;2.55;;
82505;SDS011;72144;51.444;10.560;2023-09-30T05:56:19;9.60;;;3.03;;
82505;SDS011;72144;51.444;10.560;2023-09-30T05:58:45;10.10;;;3.60;;
82505;SDS011;72144;51.444;10.560;2023-09-30T06:01:11;6.45;;;2.70;;
82505;SDS011;72144;51.444;10.560;2023-09-30T06:03:37;8.23;;;3.47;;
82505;SDS011;72144;51.444;10.560;2023-09-30T06:06:12;11.57;;;2.88;;
82505;SDS011;72144;51.444;10.560;2023-09-30T06:08:42;8.15;;;3.78;;
82505;SDS011;72144;51.444;10.560;2023-09-30T06:11:17;12.30;;;3.25;;
82505;SDS011;72144;51.444;10.560;2023-09-30T06:13:44;13.02;;;3.17;;
82505;SDS011;72144;51.444;10.560;2023-09-30T06:16:11;8.13;;;2.70;;
82505;SDS011;72144;51.444;10.560;2023-09-30T06:18:36;13.25;;;3.35;;
82505;SDS011;72144;51.444;10.560;2023-09-30T06:21:01;6.45;;;2.72;;
82505;SDS011;72144;51.444;10.560;2023-09-30T06:23:29;8.00;;;2.83;;
82505;SDS011;72144;51.444;10.560;2023-09-30T06:25:55;8.63;;;2.67;;
82505;SDS011;72144;51.444;10.560;2023-09-30T06:28:21;8.48;;;2.55;;
82505;SDS011;72144;51.444;10.560;2023-09-30T06:30:51;9.15;;;2.55;;
82505;SDS011;72144;51.444;10.560;2023-09-30T06:33:16;8.38;;;2.88;;
82505;SDS011;72144;51.444;10.560;2023-09-30T06:35:42;9.85;;;3.17;;
82505;SDS011;72144;51.444;10.560;2023-09-30T06:38:15;10.48;;;3.40;;
82505;SDS011;72144;51.444;10.560;2023-09-30T06:40:42;11.35;;;3.38;;
82505;SDS011;72144;51.444;10.560;2023-09-30T06:43:08;8.55;;;3.22;;
82505;SDS011;72144;51.444;10.560;2023-09-30T06:45:33;10.60;;;3.95;;
82505;SDS011;72144;51.444;10.560;2023-09-30T06:47:59;7.45;;;3.45;;
82505;SDS011;72144;51.444;10.560;2023-09-30T06:50:24;9.90;;;3.88;;
82505;SDS011;72144;51.444;10.560;2023-09-30T06:52:49;9.50;;;3.65;;
82505;SDS011;72144;51.444;10.560;2023-09-30T06:55:15;8.60;;;3.53;;
82505;SDS011;72144;51.444;10.560;2023-09-30T06:57:41;11.60;;;4.20;;
82505;SDS011;72144;51.444;10.560;2023-09-30T07:00:08;11.10;;;3.92;;
82505;SDS011;72144;51.444;10.560;2023-09-30T07:02:36;9.75;;;3.67;;
82505;SDS011;72144;51.444;10.560;2023-09-30T07:05:09;9.85;;;3.53;;
82505;SDS011;72144;51.444;10.560;2023-09-30T07:07:34;10.10;;;3.65;;
82505;SDS011;72144;51.444;10.560;2023-09-30T07:10:00;11.60;;;3.95;;
82505;SDS011;72144;51.444;10.560;2023-09-30T07:12:25;8.35;;;3.28;;
82505;SDS011;72144;51.444;10.560;2023-09-30T07:14:51;9.55;;;3.15;;
82505;SDS011;72144;51.444;10.560;2023-09-30T07:17:16;11.88;;;4.07;;
82505;SDS011;72144;51.444;10.560;2023-09-30T07:19:42;8.77;;;3.40;;
82505;SDS011;72144;51.444;10.560;2023-09-30T07:22:07;12.75;;;4.10;;
82505;SDS011;72144;51.444;10.560;2023-09-30T07:24:33;9.40;;;3.20;;
82505;SDS011;72144;51.444;10.560;2023-09-30T07:26:58;7.97;;;3.45;;
82505;SDS011;72144;51.444;10.560;2023-09-30T07:29:24;10.10;;;3.30;;
82505;SDS011;72144;51.444;10.560;2023-09-30T07:31:49;7.80;;;2.92;;
82505;SDS011;72144;51.444;10.560;2023-09-30T07:34:16;6.80;;;2.65;;
82505;SDS011;72144;51.444;10.560;2023-09-30T07:36:41;7.82;;;2.85;;
82505;SDS011;72144;51.444;10.560;2023-09-30T07:39:06;8.45;;;2.63;;
82505;SDS011;72144;51.444;10.560;2023-09-30T07:41:35;7.32;;;3.05;;
82505;SDS011;72144;51.444;10.560;2023-09-30T07:44:01;8.98;;;2.72;;
82505;SDS011;72144;51.444;10.560;2023-09-30T07:46:27;10.73;;;2.63;;
82505;SDS011;72144;51.444;10.560;2023-09-30T07:48:53;11.05;;;3.28;;
82505;SDS011;72144;51.444;10.560;2023-09-30T07:51:20;9.00;;;2.50;;
82505;SDS011;72144;51.444;10.560;2023-09-30T07:53:45;9.57;;;2.63;;
82505;SDS011;72144;51.444;10.560;2023-09-30T07:56:11;7.90;;;2.90;;
82505;SDS011;72144;51.444;10.560;2023-09-30T07:58:36;9.90;;;3.15;;
82505;SDS011;72144;51.444;10.560;2023-09-30T08:01:01;9.70;;;2.78;;
82505;SDS011;72144;51.444;10.560;2023-09-30T08:03:27;10.32;;;3.25;;
82505;SDS011;72144;51.444;10.560;2023-09-30T08:05:52;7.70;;;3.10;;
82505;SDS011;72144;51.444;10.560;2023-09-30T08:08:18;10.27;;;3.45;;
82505;SDS011;72144;51.444;10.560;2023-09-30T08:10:44;9.65;;;2.40;;
82505;SDS011;72144;51.444;10.560;2023-09-30T08:13:09;6.82;;;2.30;;
82505;SDS011;72144;51.444;10.560;2023-09-30T08:15:34;8.57;;;2.50;;
82505;SDS011;72144;51.444;10.560;2023-09-30T08:18:00;6.70;;;2.17;;
82505;SDS011;72144;51.444;10.560;2023-09-30T08:20:27;7.82;;;2.70;;
82505;SDS011;72144;51.444;10.560;2023-09-30T08:22:53;9.52;;;2.47;;
82505;SDS011;72144;51.444;10.560;2023-09-30T08:25:18;10.60;;;3.33;;
82505;SDS011;72144;51.444;10.560;2023-09-30T08:27:43;9.50;;;2.30;;
82505;SDS011;72144;51.444;10.560;2023-09-30T08:30:14;2.33;;;1.02;;
82505;SDS011;72144;51.444;10.560;2023-09-30T08:32:40;9.18;;;2.20;;
82505;SDS011;72144;51.444;10.560;2023-09-30T08:35:05;5.80;;;2.00;;
82505;SDS011;72144;51.444;10.560;2023-09-30T08:37:32;7.35;;;2.85;;
82505;SDS011;72144;51.444;10.560;2023-09-30T08:39:57;5.53;;;1.80;;
82505;SDS011;72144;51.444;10.560;2023-09-30T08:42:23;6.25;;;1.80;;
82505;SDS011;72144;51.444;10.560;2023-09-30T08:44:54;9.43;;;2.13;;
82505;SDS011;72144;51.444;10.560;2023-09-30T08:47:20;4.75;;;1.92;;
82505;SDS011;72144;51.444;10.560;2023-09-30T08:49:47;5.45;;;1.75;;
82505;SDS011;72144;51.444;10.560;2023-09-30T08:52:14;8.23;;;2.28;;
82505;SDS011;72144;51.444;10.560;2023-09-30T08:54:40;9.77;;;2.30;;
82505;SDS011;72144;51.444;10.560;2023-09-30T08:57:06;8.48;;;2.33;;
82505;SDS011;72144;51.444;10.560;2023-09-30T08:59:34;6.68;;;1.98;;
82505;SDS011;72144;51.444;10.560;2023-09-30T09:02:01;5.18;;;1.90;;
82505;SDS011;72144;51.444;10.560;2023-09-30T09:04:26;8.00;;;2.10;;
82505;SDS011;72144;51.444;10.560;2023-09-30T09:06:53;9.85;;;1.80;;
82505;SDS011;72144;51.444;10.560;2023-09-30T09:09:20;5.53;;;1.77;;
82505;SDS011;72144;51.444;10.560;2023-09-30T09:11:47;8.30;;;2.42;;
82505;SDS011;72144;51.444;10.560;2023-09-30T09:14:13;2.35;;;0.90;;
82505;SDS011;72144;51.444;10.560;2023-09-30T09:16:52;6.75;;;1.98;;
82505;SDS011;72144;51.444;10.560;2023-09-30T09:19:18;5.95;;;1.83;;
82505;SDS011;72144;51.444;10.560;2023-09-30T09:21:59;5.35;;;1.83;;
82505;SDS011;72144;51.444;10.560;2023-09-30T09:24:36;3.63;;;1.50;;
82505;SDS011;72144;51.444;10.560;2023-09-30T09:29:36;5.55;;;1.45;;
82505;SDS011;72144;51.444;10.560;2023-09-30T09:32:10;7.57;;;1.90;;
82505;SDS011;72144;51.444;10.560;2023-09-30T09:34:40;8.73;;;1.98;;
82505;SDS011;72144;51.444;10.560;2023-09-30T09:37:19;8.45;;;1.73;;
82505;SDS011;72144;51.444;10.560;2023-09-30T09:40:03;6.55;;;1.88;;
82505;SDS011;72144;51.444;10.560;2023-09-30T09:42:30;5.38;;;1.48;;
82505;SDS011;72144;51.444;10.560;2023-09-30T09:45:00;5.43;;;1.50;;
82505;SDS011;72144;51.444;10.560;2023-09-30T09:47:29;4.70;;;1.38;;
82505;SDS011;72144;51.444;10.560;2023-09-30T09:49:56;5.32;;;1.23;;
82505;SDS011;72144;51.444;10.560;2023-09-30T09:52:23;3.35;;;1.70;;
82505;SDS011;72144;51.444;10.560;2023-09-30T09:54:48;6.43;;;1.73;;
82505;SDS011;72144;51.444;10.560;2023-09-30T09:57:16;5.40;;;1.20;;
82505;SDS011;72144;51.444;10.560;2023-09-30T09:59:42;4.07;;;1.85;;
82505;SDS011;72144;51.444;10.560;2023-09-30T10:02:12;6.38;;;1.42;;
82505;SDS011;72144;51.444;10.560;2023-09-30T10:04:39;4.43;;;1.50;;
82505;SDS011;72144;51.444;10.560;2023-09-30T10:07:25;5.72;;;1.77;;
82505;SDS011;72144;51.444;10.560;2023-09-30T10:09:54;5.75;;;1.40;;
82505;SDS011;72144;51.444;10.560;2023-09-30T10:12:23;6.15;;;1.80;;
82505;SDS011;72144;51.444;10.560;2023-09-30T10:14:48;4.60;;;1.60;;
82505;SDS011;72144;51.444;10.560;2023-09-30T10:17:14;5.75;;;1.33;;
82505;SDS011;72144;51.444;10.560;2023-09-30T10:22:34;8.77;;;1.90;;
82505;SDS011;72144;51.444;10.560;2023-09-30T10:25:00;3.97;;;1.48;;
82505;SDS011;72144;51.444;10.560;2023-09-30T10:29:56;7.05;;;1.60;;
82505;SDS011;72144;51.444;10.560;2023-09-30T10:33:07;5.72;;;1.05;;
82505;SDS011;72144;51.444;10.560;2023-09-30T10:40:52;6.75;;;1.73;;
82505;SDS011;72144;51.444;10.560;2023-09-30T10:48:54;5.40;;;1.60;;
82505;SDS011;72144;51.444;10.560;2023-09-30T10:51:20;4.80;;;1.17;;
82505;SDS011;72144;51.444;10.560;2023-09-30T10:53:52;5.07;;;1.30;;
82505;SDS011;72144;51.444;10.560;2023-09-30T10:56:22;3.90;;;1.17;;
82505;SDS011;72144;51.444;10.560;2023-09-30T10:58:52;5.15;;;1.15;;
82505;SDS011;72144;51.444;10.560;2023-09-30T11:01:19;3.45;;;1.33;;
82505;SDS011;72144;51.444;10.560;2023-09-30T11:03:48;7.15;;;1.63;;
82505;SDS011;72144;51.444;10.560;2023-09-30T11:06:19;5.13;;;2.08;;
82505;SDS011;72144;51.444;10.560;2023-09-30T11:08:47;5.88;;;2.08;;
82505;SDS011;72144;51.444;10.560;2023-09-30T11:11:18;5.53;;;1.30;;
82505;SDS011;72144;51.444;10.560;2023-09-30T11:13:43;6.80;;;1.50;;
82505;SDS011;72144;51.444;10.560;2023-09-30T11:16:09;8.65;;;1.95;;
82505;SDS011;72144;51.444;10.560;2023-09-30T11:18:35;8.07;;;1.58;;
82505;SDS011;72144;51.444;10.560;2023-09-30T11:21:09;3.95;;;1.20;;
82505;SDS011;72144;51.444;10.560;2023-09-30T11:23:36;6.85;;;2.10;;
82505;SDS011;72144;51.444;10.560;2023-09-30T11:26:02;7.20;;;1.58;;
82505;SDS011;72144;51.444;10.560;2023-09-30T11:28:36;8.40;;;1.65;;
82505;SDS011;72144;51.444;10.560;2023-09-30T11:31:03;4.85;;;1.40;;
82505;SDS011;72144;51.444;10.560;2023-09-30T11:33:29;6.45;;;1.70;;
82505;SDS011;72144;51.444;10.560;2023-09-30T11:35:59;5.57;;;1.33;;
82505;SDS011;72144;51.444;10.560;2023-09-30T11:38:30;5.00;;;1.27;;
82505;SDS011;72144;51.444;10.560;2023-09-30T11:40:59;6.18;;;1.58;;
82505;SDS011;72144;51.444;10.560;2023-09-30T11:43:27;7.53;;;1.33;;
82505;SDS011;72144;51.444;10.560;2023-09-30T11:46:03;4.00;;;1.10;;
82505;SDS011;72144;51.444;10.560;2023-09-30T11:48:34;5.28;;;1.30;;
82505;SDS011;72144;51.444;10.560;2023-09-30T11:51:03;4.40;;;1.15;;
82505;SDS011;72144;51.444;10.560;2023-09-30T11:53:30;4.00;;;0.98;;
82505;SDS011;72144;51.444;10.560;2023-09-30T11:55:56;3.33;;;1.13;;
82505;SDS011;72144;51.444;10.560;2023-09-30T12:00:55;6.25;;;1.40;;
82505;SDS011;72144;51.444;10.560;2023-09-30T12:03:24;4.38;;;1.50;;
82505;SDS011;72144;51.444;10.560;2023-09-30T12:05:52;3.67;;;1.65;;
82505;SDS011;72144;51.444;10.560;2023-09-30T12:08:20;3.10;;;1.02;;
82505;SDS011;72144;51.444;10.560;2023-09-30T12:10:48;5.32;;;1.20;;
82505;SDS011;72144;51.444;10.560;2023-09-30T12:13:14;4.95;;;1.73;;
82505;SDS011;72144;51.444;10.560;2023-09-30T12:15:40;4.63;;;1.48;;
82505;SDS011;72144;51.444;10.560;2023-09-30T12:18:06;4.25;;;1.60;;
82505;SDS011;72144;51.444;10.560;2023-09-30T12:20:32;6.28;;;1.80;;
82505;SDS011;72144;51.444;10.560;2023-09-30T12:22:58;4.93;;;1.10;;
82505;SDS011;72144;51.444;10.560;2023-09-30T12:25:23;4.93;;;1.65;;
82505;SDS011;72144;51.444;10.560;2023-09-30T12:27:50;4.28;;;1.40;;
82505;SDS011;72144;51.444;10.560;2023-09-30T12:30:15;4.97;;;1.48;;
82505;SDS011;72144;51.444;10.560;2023-09-30T12:32:42;6.65;;;1.80;;
82505;SDS011;72144;51.444;10.560;2023-09-30T12:35:07;6.90;;;1.40;;
82505;SDS011;72144;51.444;10.560;2023-09-30T12:37:33;4.10;;;0.93;;
82505;SDS011;72144;51.444;10.560;2023-09-30T12:39:58;5.57;;;1.50;;
82505;SDS011;72144;51.444;10.560;2023-09-30T12:42:24;5.07;;;1.50;;
82505;SDS011;72144;51.444;10.560;2023-09-30T12:44:49;6.10;;;1.42;;
82505;SDS011;72144;51.444;10.560;2023-09-30T12:47:15;4.00;;;1.67;;
82505;SDS011;72144;51.444;10.560;2023-09-30T12:49:40;5.00;;;1.50;;
82505;SDS011;72144;51.444;10.560;2023-09-30T12:52:06;4.20;;;1.40;;
82505;SDS011;72144;51.444;10.560;2023-09-30T12:54:32;9.10;;;2.05;;
82505;SDS011;72144;51.444;10.560;2023-09-30T12:56:57;5.15;;;1.60;;
82505;SDS011;72144;51.444;10.560;2023-09-30T12:59:23;7.53;;;1.88;;
82505;SDS011;72144;51.444;10.560;2023-09-30T13:01:50;4.78;;;1.20;;
82505;SDS011;72144;51.444;10.560;2023-09-30T13:04:16;6.80;;;2.10;;
82505;SDS011;72144;51.444;10.560;2023-09-30T13:06:42;7.07;;;1.75;;
82505;SDS011;72144;51.444;10.560;2023-09-30T13:09:08;5.85;;;1.70;;
82505;SDS011;72144;51.444;10.560;2023-09-30T13:11:34;5.95;;;1.70;;
82505;SDS011;72144;51.444;10.560;2023-09-30T13:13:59;5.10;;;1.38;;
82505;SDS011;72144;51.444;10.560;2023-09-30T13:16:24;5.97;;;1.73;;
82505;SDS011;72144;51.444;10.560;2023-09-30T13:18:50;4.95;;;1.38;;
82505;SDS011;72144;51.444;10.560;2023-09-30T13:21:18;5.68;;;1.38;;
82505;SDS011;72144;51.444;10.560;2023-09-30T13:23:43;4.53;;;1.10;;
82505;SDS011;72144;51.444;10.560;2023-09-30T13:26:10;4.75;;;1.20;;
82505;SDS011;72144;51.444;10.560;2023-09-30T13:28:35;3.15;;;1.20;;
82505;SDS011;72144;51.444;10.560;2023-09-30T13:31:01;3.75;;;1.08;;
82505;SDS011;72144;51.444;10.560;2023-09-30T13:33:26;4.13;;;0.98;;
82505;SDS011;72144;51.444;10.560;2023-09-30T13:35:52;5.15;;;1.55;;
82505;SDS011;72144;51.444;10.560;2023-09-30T13:38:17;5.18;;;1.27;;
82505;SDS011;72144;51.444;10.560;2023-09-30T13:40:43;6.00;;;1.42;;
82505;SDS011;72144;51.444;10.560;2023-09-30T13:43:09;4.55;;;1.30;;
82505;SDS011;72144;51.444;10.560;2023-09-30T13:45:34;5.00;;;1.17;;
82505;SDS011;72144;51.444;10.560;2023-09-30T13:48:00;6.43;;;1.67;;
82505;SDS011;72144;51.444;10.560;2023-09-30T13:50:25;5.30;;;1.27;;
82505;SDS011;72144;51.444;10.560;2023-09-30T13:52:50;4.22;;;1.38;;
82505;SDS011;72144;51.444;10.560;2023-09-30T13:55:16;5.68;;;1.45;;
82505;SDS011;72144;51.444;10.560;2023-09-30T13:57:44;3.92;;;1.20;;
82505;SDS011;72144;51.444;10.560;2023-09-30T14:00:11;4.78;;;0.95;;
82505;SDS011;72144;51.444;10.560;2023-09-30T14:02:38;5.82;;;1.30;;
82505;SDS011;72144;51.444;10.560;2023-09-30T14:05:04;3.90;;;1.27;;
82505;SDS011;72144;51.444;10.560;2023-09-30T14:07:33;7.38;;;1.38;;
82505;SDS011;72144;51.444;10.560;2023-09-30T14:09:59;5.45;;;1.40;;
82505;SDS011;72144;51.444;10.560;2023-09-30T14:12:24;4.78;;;1.13;;
82505;SDS011;72144;51.444;10.560;2023-09-30T14:14:49;5.72;;;1.17;;
82505;SDS011;72144;51.444;10.560;2023-09-30T14:17:16;4.15;;;1.30;;
82505;SDS011;72144;51.444;10.560;2023-09-30T14:19:42;5.63;;;1.33;;
82505;SDS011;72144;51.444;10.560;2023-09-30T14:22:08;3.47;;;1.17;;
82505;SDS011;72144;51.444;10.560;2023-09-30T14:24:34;3.67;;;1.00;;
82505;SDS011;72144;51.444;10.560;2023-09-30T14:27:01;4.68;;;1.05;;
82505;SDS011;72144;51.444;10.560;2023-09-30T14:29:28;4.93;;;1.25;;
82505;SDS011;72144;51.444;10.560;2023-09-30T14:31:54;3.80;;;0.98;;
82505;SDS011;72144;51.444;10.560;2023-09-30T14:34:19;5.18;;;1.35;;
82505;SDS011;72144;51.444;10.560;2023-09-30T14:36:45;3.50;;;1.10;;
82505;SDS011;72144;51.444;10.560;2023-09-30T14:39:10;3.85;;;0.90;;
82505;SDS011;72144;51.444;10.560;2023-09-30T14:41:36;4.03;;;1.15;;
82505;SDS011;72144;51.444;10.560;2023-09-30T14:44:02;4.88;;;1.08;;
82505;SDS011;72144;51.444;10.560;2023-09-30T14:46:32;4.40;;;1.00;;
82505;SDS011;72144;51.444;10.560;2023-09-30T14:48:58;4.20;;;0.82;;
82505;SDS011;72144;51.444;10.560;2023-09-30T14:51:25;4.38;;;0.85;;
82505;SDS011;72144;51.444;10.560;2023-09-30T14:53:50;3.65;;;1.13;;
82505;SDS011;72144;51.444;10.560;2023-09-30T14:56:16;4.93;;;1.10;;